sensor_id;sensor_type;location;lat;lon;timestamp;temperature;humidity
21676;DHT22;10999;51.332;9.458;2022-10-16T00:01:14;14.20;99.90
21676;DHT22;10999;51.332;9.458;2022-10-16T00:03:43;14.20;99.90
21676;DHT22;10999;51.332;9.458;2022-10-16T00:06:10;14.20;99.90
21676;DHT22;10999;51.332;9.458;2022-10-16T00:08:38;14.20;99.90
21676;DHT22;10999;51.332;9.458;2022-10-16T00:11:08;14.20;99.90
21676;DHT22;10999;51.332;9.458;2022-10-16T00:13:37;14.20;99.90
21676;DHT22;10999;51.332;9.458;2022-10-16T00:16:04;14.20;99.90
21676;DHT22;10999;51.332;9.458;2022-10-16T00:18:31;14.20;99.90
21676;DHT22;10999;51.332;9.458;2022-10-16T00:21:04;14.20;99.90
21676;DHT22;10999;51.332;9.458;2022-10-16T00:23:31;14.20;99.90
21676;DHT22;10999;51.332;9.458;2022-10-16T00:26:00;14.20;99.90
21676;DHT22;10999;51.332;9.458;2022-10-16T00:28:28;14.30;99.90
21676;DHT22;10999;51.332;9.458;2022-10-16T00:30:55;14.30;99.90
21676;DHT22;10999;51.332;9.458;2022-10-16T00:33:29;14.30;99.90
21676;DHT22;10999;51.332;9.458;2022-10-16T00:36:01;14.30;99.90
21676;DHT22;10999;51.332;9.458;2022-10-16T00:38:28;14.30;99.90
21676;DHT22;10999;51.332;9.458;2022-10-16T00:40:55;14.40;99.90
21676;DHT22;10999;51.332;9.458;2022-10-16T00:43:43;14.40;99.90
21676;DHT22;10999;51.332;9.458;2022-10-16T00:46:22;14.40;99.90
21676;DHT22;10999;51.332;9.458;2022-10-16T00:49:08;14.40;99.90
21676;DHT22;10999;51.332;9.458;2022-10-16T00:51:46;14.30;99.90
21676;DHT22;10999;51.332;9.458;2022-10-16T00:54:20;14.40;99.90
21676;DHT22;10999;51.332;9.458;2022-10-16T00:56:48;14.40;99.90
21676;DHT22;10999;51.332;9.458;2022-10-16T00:59:22;14.40;99.90
21676;DHT22;10999;51.332;9.458;2022-10-16T01:01:52;14.40;99.90
21676;DHT22;10999;51.332;9.458;2022-10-16T01:04:19;14.40;99.90
21676;DHT22;10999;51.332;9.458;2022-10-16T01:09:54;14.40;99.90
21676;DHT22;10999;51.332;9.458;2022-10-16T01:21:16;14.30;99.90
21676;DHT22;10999;51.332;9.458;2022-10-16T01:29:15;14.20;99.90
21676;DHT22;10999;51.332;9.458;2022-10-16T01:31:49;14.20;99.90
21676;DHT22;10999;51.332;9.458;2022-10-16T01:34:23;14.10;99.90
21676;DHT22;10999;51.332;9.458;2022-10-16T01:36:54;14.10;99.90
21676;DHT22;10999;51.332;9.458;2022-10-16T01:39:25;14.00;99.90
21676;DHT22;10999;51.332;9.458;2022-10-16T01:42:01;14.10;99.90
21676;DHT22;10999;51.332;9.458;2022-10-16T01:44:32;14.00;99.90
21676;DHT22;10999;51.332;9.458;2022-10-16T01:47:00;14.00;99.90
21676;DHT22;10999;51.332;9.458;2022-10-16T01:49:32;13.90;99.90
21676;DHT22;10999;51.332;9.458;2022-10-16T01:52:02;13.90;99.90
21676;DHT22;10999;51.332;9.458;2022-10-16T01:54:32;13.90;99.90
21676;DHT22;10999;51.332;9.458;2022-10-16T01:57:01;13.90;99.90
21676;DHT22;10999;51.332;9.458;2022-10-16T01:59:31;14.00;99.90
21676;DHT22;10999;51.332;9.458;2022-10-16T02:02:03;13.90;99.90
21676;DHT22;10999;51.332;9.458;2022-10-16T02:04:47;13.90;99.90
21676;DHT22;10999;51.332;9.458;2022-10-16T02:07:15;14.00;99.90
21676;DHT22;10999;51.332;9.458;2022-10-16T02:09:43;14.00;99.90
21676;DHT22;10999;51.332;9.458;2022-10-16T02:12:15;13.90;99.90
21676;DHT22;10999;51.332;9.458;2022-10-16T02:14:44;13.90;99.90
21676;DHT22;10999;51.332;9.458;2022-10-16T02:17:16;13.90;99.90
21676;DHT22;10999;51.332;9.458;2022-10-16T02:19:44;13.80;99.90
21676;DHT22;10999;51.332;9.458;2022-10-16T02:22:20;13.80;99.90
21676;DHT22;10999;51.332;9.458;2022-10-16T02:27:27;13.80;99.90
21676;DHT22;10999;51.332;9.458;2022-10-16T02:30:08;13.80;99.90
21676;DHT22;10999;51.332;9.458;2022-10-16T02:32:38;13.80;99.90
21676;DHT22;10999;51.332;9.458;2022-10-16T02:35:06;13.80;99.90
21676;DHT22;10999;51.332;9.458;2022-10-16T02:37:34;13.80;99.90
21676;DHT22;10999;51.332;9.458;2022-10-16T02:40:02;13.80;99.90
21676;DHT22;10999;51.332;9.458;2022-10-16T02:42:36;13.80;99.90
21676;DHT22;10999;51.332;9.458;2022-10-16T02:45:04;13.80;99.90
21676;DHT22;10999;51.332;9.458;2022-10-16T02:47:31;13.80;99.90
21676;DHT22;10999;51.332;9.458;2022-10-16T02:49:58;13.80;99.90
21676;DHT22;10999;51.332;9.458;2022-10-16T02:52:25;13.80;99.90
21676;DHT22;10999;51.332;9.458;2022-10-16T02:54:52;13.70;99.90
21676;DHT22;10999;51.332;9.458;2022-10-16T02:57:19;13.70;99.90
21676;DHT22;10999;51.332;9.458;2022-10-16T02:59:46;13.80;99.90
21676;DHT22;10999;51.332;9.458;2022-10-16T03:02:12;13.80;99.90
21676;DHT22;10999;51.332;9.458;2022-10-16T03:04:39;13.80;99.90
21676;DHT22;10999;51.332;9.458;2022-10-16T03:07:06;13.80;99.90
21676;DHT22;10999;51.332;9.458;2022-10-16T03:09:34;13.80;99.90
21676;DHT22;10999;51.332;9.458;2022-10-16T03:12:00;13.80;99.90
21676;DHT22;10999;51.332;9.458;2022-10-16T03:14:27;13.80;99.90
21676;DHT22;10999;51.332;9.458;2022-10-16T03:16:54;13.70;99.90
21676;DHT22;10999;51.332;9.458;2022-10-16T03:19:20;13.70;99.90
21676;DHT22;10999;51.332;9.458;2022-10-16T03:21:47;13.70;99.90
21676;DHT22;10999;51.332;9.458;2022-10-16T03:24:14;13.70;99.90
21676;DHT22;10999;51.332;9.458;2022-10-16T03:26:41;13.80;99.90
21676;DHT22;10999;51.332;9.458;2022-10-16T03:29:07;13.70;99.90
21676;DHT22;10999;51.332;9.458;2022-10-16T03:31:34;13.70;99.90
21676;DHT22;10999;51.332;9.458;2022-10-16T03:34:01;13.70;99.90
21676;DHT22;10999;51.332;9.458;2022-10-16T03:36:27;13.70;99.90
21676;DHT22;10999;51.332;9.458;2022-10-16T03:38:54;13.60;99.90
21676;DHT22;10999;51.332;9.458;2022-10-16T03:41:21;13.60;99.90
21676;DHT22;10999;51.332;9.458;2022-10-16T03:43:47;13.60;99.90
21676;DHT22;10999;51.332;9.458;2022-10-16T03:46:14;13.50;99.90
21676;DHT22;10999;51.332;9.458;2022-10-16T03:48:41;13.50;99.90
21676;DHT22;10999;51.332;9.458;2022-10-16T03:51:08;13.50;99.90
21676;DHT22;10999;51.332;9.458;2022-10-16T03:53:34;13.40;99.90
21676;DHT22;10999;51.332;9.458;2022-10-16T03:56:01;13.40;99.90
21676;DHT22;10999;51.332;9.458;2022-10-16T03:58:28;13.40;99.90
21676;DHT22;10999;51.332;9.458;2022-10-16T04:00:54;13.40;99.90
21676;DHT22;10999;51.332;9.458;2022-10-16T04:03:21;13.40;99.90
21676;DHT22;10999;51.332;9.458;2022-10-16T04:05:49;13.40;99.90
21676;DHT22;10999;51.332;9.458;2022-10-16T04:08:16;13.40;99.90
21676;DHT22;10999;51.332;9.458;2022-10-16T04:10:43;13.40;99.90
21676;DHT22;10999;51.332;9.458;2022-10-16T04:13:11;13.40;99.90
21676;DHT22;10999;51.332;9.458;2022-10-16T04:15:37;13.40;99.90
21676;DHT22;10999;51.332;9.458;2022-10-16T04:18:04;13.40;99.90
21676;DHT22;10999;51.332;9.458;2022-10-16T04:20:33;13.40;99.90
21676;DHT22;10999;51.332;9.458;2022-10-16T04:23:00;13.40;99.90
21676;DHT22;10999;51.332;9.458;2022-10-16T04:25:27;13.40;99.90
21676;DHT22;10999;51.332;9.458;2022-10-16T04:27:54;13.40;99.90
21676;DHT22;10999;51.332;9.458;2022-10-16T04:30:22;13.40;99.90
21676;DHT22;10999;51.332;9.458;2022-10-16T04:32:50;13.40;99.90
21676;DHT22;10999;51.332;9.458;2022-10-16T04:35:18;13.50;99.90
21676;DHT22;10999;51.332;9.458;2022-10-16T04:37:45;13.50;99.90
21676;DHT22;10999;51.332;9.458;2022-10-16T04:40:12;13.50;99.90
21676;DHT22;10999;51.332;9.458;2022-10-16T04:42:39;13.50;99.90
21676;DHT22;10999;51.332;9.458;2022-10-16T04:45:07;13.50;99.90
21676;DHT22;10999;51.332;9.458;2022-10-16T04:47:40;13.50;99.90
21676;DHT22;10999;51.332;9.458;2022-10-16T04:50:07;13.60;99.90
21676;DHT22;10999;51.332;9.458;2022-10-16T04:52:34;13.60;99.90
21676;DHT22;10999;51.332;9.458;2022-10-16T04:55:06;13.60;99.90
21676;DHT22;10999;51.332;9.458;2022-10-16T04:57:33;13.60;99.90
21676;DHT22;10999;51.332;9.458;2022-10-16T04:59:59;13.60;99.90
21676;DHT22;10999;51.332;9.458;2022-10-16T05:02:26;13.60;99.90
21676;DHT22;10999;51.332;9.458;2022-10-16T05:04:53;13.60;99.90
21676;DHT22;10999;51.332;9.458;2022-10-16T05:07:20;13.60;99.90
21676;DHT22;10999;51.332;9.458;2022-10-16T05:09:46;13.60;99.90
21676;DHT22;10999;51.332;9.458;2022-10-16T05:12:13;13.60;99.90
21676;DHT22;10999;51.332;9.458;2022-10-16T05:14:40;13.50;99.90
21676;DHT22;10999;51.332;9.458;2022-10-16T05:17:06;13.50;99.90
21676;DHT22;10999;51.332;9.458;2022-10-16T05:19:33;13.50;99.90
21676;DHT22;10999;51.332;9.458;2022-10-16T05:22:00;13.50;99.90
21676;DHT22;10999;51.332;9.458;2022-10-16T05:24:27;13.50;99.90
21676;DHT22;10999;51.332;9.458;2022-10-16T05:26:54;13.50;99.90
21676;DHT22;10999;51.332;9.458;2022-10-16T05:29:21;13.50;99.90
21676;DHT22;10999;51.332;9.458;2022-10-16T05:31:56;13.50;99.90
21676;DHT22;10999;51.332;9.458;2022-10-16T05:34:23;13.50;99.90
21676;DHT22;10999;51.332;9.458;2022-10-16T05:36:51;13.50;99.90
21676;DHT22;10999;51.332;9.458;2022-10-16T05:39:17;13.50;99.90
21676;DHT22;10999;51.332;9.458;2022-10-16T05:41:44;13.50;99.90
21676;DHT22;10999;51.332;9.458;2022-10-16T05:44:11;13.50;99.90
21676;DHT22;10999;51.332;9.458;2022-10-16T05:46:38;13.40;99.90
21676;DHT22;10999;51.332;9.458;2022-10-16T05:49:04;13.50;99.90
21676;DHT22;10999;51.332;9.458;2022-10-16T05:51:31;13.50;99.90
21676;DHT22;10999;51.332;9.458;2022-10-16T05:53:58;13.50;99.90
21676;DHT22;10999;51.332;9.458;2022-10-16T05:56:24;13.50;99.90
21676;DHT22;10999;51.332;9.458;2022-10-16T05:58:51;13.50;99.90
21676;DHT22;10999;51.332;9.458;2022-10-16T06:01:18;13.50;99.90
21676;DHT22;10999;51.332;9.458;2022-10-16T06:03:47;13.60;99.90
21676;DHT22;10999;51.332;9.458;2022-10-16T06:06:16;13.60;99.90
21676;DHT22;10999;51.332;9.458;2022-10-16T06:08:44;13.60;99.90
21676;DHT22;10999;51.332;9.458;2022-10-16T06:11:15;13.60;99.90
21676;DHT22;10999;51.332;9.458;2022-10-16T06:13:42;13.60;99.90
21676;DHT22;10999;51.332;9.458;2022-10-16T06:16:10;13.70;99.90
21676;DHT22;10999;51.332;9.458;2022-10-16T06:18:37;13.70;99.90
21676;DHT22;10999;51.332;9.458;2022-10-16T06:21:13;13.70;99.90
21676;DHT22;10999;51.332;9.458;2022-10-16T06:23:40;13.70;99.90
21676;DHT22;10999;51.332;9.458;2022-10-16T06:26:09;13.80;99.90
21676;DHT22;10999;51.332;9.458;2022-10-16T06:28:36;13.70;99.90
21676;DHT22;10999;51.332;9.458;2022-10-16T06:31:05;13.80;99.90
21676;DHT22;10999;51.332;9.458;2022-10-16T06:33:34;13.80;99.90
21676;DHT22;10999;51.332;9.458;2022-10-16T06:38:32;13.80;99.90
21676;DHT22;10999;51.332;9.458;2022-10-16T06:40:59;13.80;99.90
21676;DHT22;10999;51.332;9.458;2022-10-16T06:43:28;13.90;99.90
21676;DHT22;10999;51.332;9.458;2022-10-16T06:45:57;13.90;99.90
21676;DHT22;10999;51.332;9.458;2022-10-16T06:48:25;13.90;99.90
21676;DHT22;10999;51.332;9.458;2022-10-16T06:53:23;14.00;99.90
21676;DHT22;10999;51.332;9.458;2022-10-16T06:55:50;14.00;99.90
21676;DHT22;10999;51.332;9.458;2022-10-16T06:58:16;14.00;99.90
21676;DHT22;10999;51.332;9.458;2022-10-16T07:00:43;14.10;99.90
21676;DHT22;10999;51.332;9.458;2022-10-16T07:03:10;14.10;99.90
21676;DHT22;10999;51.332;9.458;2022-10-16T07:05:41;14.10;99.90
21676;DHT22;10999;51.332;9.458;2022-10-16T07:08:08;14.20;99.90
21676;DHT22;10999;51.332;9.458;2022-10-16T07:10:35;14.20;99.90
21676;DHT22;10999;51.332;9.458;2022-10-16T07:13:02;14.20;99.90
21676;DHT22;10999;51.332;9.458;2022-10-16T07:15:29;14.20;99.90
21676;DHT22;10999;51.332;9.458;2022-10-16T07:17:55;14.20;99.30
21676;DHT22;10999;51.332;9.458;2022-10-16T07:20:22;14.20;98.10
21676;DHT22;10999;51.332;9.458;2022-10-16T07:22:49;14.20;96.70
21676;DHT22;10999;51.332;9.458;2022-10-16T07:25:16;14.20;97.00
21676;DHT22;10999;51.332;9.458;2022-10-16T07:27:42;14.20;96.80
21676;DHT22;10999;51.332;9.458;2022-10-16T07:30:09;14.30;96.30
21676;DHT22;10999;51.332;9.458;2022-10-16T07:32:36;14.30;95.50
21676;DHT22;10999;51.332;9.458;2022-10-16T07:35:04;14.30;94.80
21676;DHT22;10999;51.332;9.458;2022-10-16T07:37:30;14.30;93.50
21676;DHT22;10999;51.332;9.458;2022-10-16T07:39:57;14.30;92.70
21676;DHT22;10999;51.332;9.458;2022-10-16T07:42:24;14.30;92.40
21676;DHT22;10999;51.332;9.458;2022-10-16T07:44:51;14.30;91.40
21676;DHT22;10999;51.332;9.458;2022-10-16T07:47:17;14.40;91.10
21676;DHT22;10999;51.332;9.458;2022-10-16T07:49:44;14.30;91.40
21676;DHT22;10999;51.332;9.458;2022-10-16T07:52:11;14.30;91.10
21676;DHT22;10999;51.332;9.458;2022-10-16T07:54:37;14.40;90.70
21676;DHT22;10999;51.332;9.458;2022-10-16T07:57:04;14.40;90.70
21676;DHT22;10999;51.332;9.458;2022-10-16T07:59:31;14.30;91.00
21676;DHT22;10999;51.332;9.458;2022-10-16T08:01:57;14.30;90.90
21676;DHT22;10999;51.332;9.458;2022-10-16T08:04:24;14.30;91.40
21676;DHT22;10999;51.332;9.458;2022-10-16T08:06:51;14.30;91.90
21676;DHT22;10999;51.332;9.458;2022-10-16T08:09:17;14.30;92.50
21676;DHT22;10999;51.332;9.458;2022-10-16T08:11:44;14.40;92.20
21676;DHT22;10999;51.332;9.458;2022-10-16T08:14:11;14.30;92.50
21676;DHT22;10999;51.332;9.458;2022-10-16T08:16:37;14.40;92.50
21676;DHT22;10999;51.332;9.458;2022-10-16T08:19:04;14.40;92.30
21676;DHT22;10999;51.332;9.458;2022-10-16T08:21:31;14.50;92.30
21676;DHT22;10999;51.332;9.458;2022-10-16T08:23:57;14.50;92.20
21676;DHT22;10999;51.332;9.458;2022-10-16T08:26:26;14.50;92.20
21676;DHT22;10999;51.332;9.458;2022-10-16T08:28:54;14.50;90.90
21676;DHT22;10999;51.332;9.458;2022-10-16T08:31:22;14.50;90.60
21676;DHT22;10999;51.332;9.458;2022-10-16T08:33:49;14.60;90.80
21676;DHT22;10999;51.332;9.458;2022-10-16T08:36:16;14.60;90.90
21676;DHT22;10999;51.332;9.458;2022-10-16T08:38:43;14.60;90.90
21676;DHT22;10999;51.332;9.458;2022-10-16T08:44:04;14.60;88.70
21676;DHT22;10999;51.332;9.458;2022-10-16T08:46:39;14.60;87.90
21676;DHT22;10999;51.332;9.458;2022-10-16T08:49:16;14.60;87.80
21676;DHT22;10999;51.332;9.458;2022-10-16T08:51:44;14.60;87.90
21676;DHT22;10999;51.332;9.458;2022-10-16T08:54:29;14.70;88.50
21676;DHT22;10999;51.332;9.458;2022-10-16T08:57:09;14.70;88.10
21676;DHT22;10999;51.332;9.458;2022-10-16T08:59:36;14.90;89.20
21676;DHT22;10999;51.332;9.458;2022-10-16T09:10:47;15.40;85.80
21676;DHT22;10999;51.332;9.458;2022-10-16T09:14:06;15.50;85.80
21676;DHT22;10999;51.332;9.458;2022-10-16T09:18:58;16.00;84.60
21676;DHT22;10999;51.332;9.458;2022-10-16T09:21:32;16.50;83.10
21676;DHT22;10999;51.332;9.458;2022-10-16T09:24:11;16.90;79.20
21676;DHT22;10999;51.332;9.458;2022-10-16T09:26:40;17.30;78.90
21676;DHT22;10999;51.332;9.458;2022-10-16T09:29:15;17.70;72.50
21676;DHT22;10999;51.332;9.458;2022-10-16T09:31:43;17.80;69.10
21676;DHT22;10999;51.332;9.458;2022-10-16T09:34:30;17.70;68.00
21676;DHT22;10999;51.332;9.458;2022-10-16T09:37:00;17.70;70.10
21676;DHT22;10999;51.332;9.458;2022-10-16T09:39:27;17.80;71.50
21676;DHT22;10999;51.332;9.458;2022-10-16T09:41:55;17.80;68.40
21676;DHT22;10999;51.332;9.458;2022-10-16T09:44:28;17.80;69.00
21676;DHT22;10999;51.332;9.458;2022-10-16T09:47:04;17.90;71.50
21676;DHT22;10999;51.332;9.458;2022-10-16T09:49:31;18.10;70.90
21676;DHT22;10999;51.332;9.458;2022-10-16T09:52:09;18.20;67.80
21676;DHT22;10999;51.332;9.458;2022-10-16T09:54:37;18.20;69.00
21676;DHT22;10999;51.332;9.458;2022-10-16T09:57:10;18.40;69.30
21676;DHT22;10999;51.332;9.458;2022-10-16T09:59:52;18.40;67.00
21676;DHT22;10999;51.332;9.458;2022-10-16T10:02:44;18.20;66.70
21676;DHT22;10999;51.332;9.458;2022-10-16T10:05:24;18.20;67.20
21676;DHT22;10999;51.332;9.458;2022-10-16T10:08:14;17.90;68.30
21676;DHT22;10999;51.332;9.458;2022-10-16T10:10:43;18.00;71.40
21676;DHT22;10999;51.332;9.458;2022-10-16T10:13:24;18.00;68.20
21676;DHT22;10999;51.332;9.458;2022-10-16T10:15:51;18.20;66.10
21676;DHT22;10999;51.332;9.458;2022-10-16T10:18:21;18.40;67.00
21676;DHT22;10999;51.332;9.458;2022-10-16T10:21:02;18.50;64.70
21676;DHT22;10999;51.332;9.458;2022-10-16T10:23:31;18.70;65.50
21676;DHT22;10999;51.332;9.458;2022-10-16T10:26:18;19.00;59.50
21676;DHT22;10999;51.332;9.458;2022-10-16T10:29:04;19.20;59.70
21676;DHT22;10999;51.332;9.458;2022-10-16T10:31:54;19.40;57.90
21676;DHT22;10999;51.332;9.458;2022-10-16T10:37:14;19.50;55.50
21676;DHT22;10999;51.332;9.458;2022-10-16T10:45:36;19.70;52.90
21676;DHT22;10999;51.332;9.458;2022-10-16T10:48:23;19.30;52.50
21676;DHT22;10999;51.332;9.458;2022-10-16T10:51:23;19.20;54.20
21676;DHT22;10999;51.332;9.458;2022-10-16T10:56:57;19.20;52.10
21676;DHT22;10999;51.332;9.458;2022-10-16T11:02:30;19.40;51.40
21676;DHT22;10999;51.332;9.458;2022-10-16T11:10:20;19.80;47.40
21676;DHT22;10999;51.332;9.458;2022-10-16T11:12:54;19.90;44.80
21676;DHT22;10999;51.332;9.458;2022-10-16T11:17:59;20.10;43.20
21676;DHT22;10999;51.332;9.458;2022-10-16T11:20:32;20.10;44.10
21676;DHT22;10999;51.332;9.458;2022-10-16T11:23:25;20.10;39.60
21676;DHT22;10999;51.332;9.458;2022-10-16T11:25:59;20.10;39.40
21676;DHT22;10999;51.332;9.458;2022-10-16T11:28:37;20.10;42.50
21676;DHT22;10999;51.332;9.458;2022-10-16T11:36:33;20.00;40.10
21676;DHT22;10999;51.332;9.458;2022-10-16T11:39:04;20.10;39.80
21676;DHT22;10999;51.332;9.458;2022-10-16T11:44:57;20.40;40.30
21676;DHT22;10999;51.332;9.458;2022-10-16T11:47:43;20.30;37.20
21676;DHT22;10999;51.332;9.458;2022-10-16T11:50:35;20.40;39.30
21676;DHT22;10999;51.332;9.458;2022-10-16T11:55:49;20.40;39.30
21676;DHT22;10999;51.332;9.458;2022-10-16T12:06:29;20.40;36.60
21676;DHT22;10999;51.332;9.458;2022-10-16T12:08:59;20.40;36.60
21676;DHT22;10999;51.332;9.458;2022-10-16T12:11:38;20.40;36.70
21676;DHT22;10999;51.332;9.458;2022-10-16T12:14:20;20.60;38.80
21676;DHT22;10999;51.332;9.458;2022-10-16T12:16:58;20.70;37.70
21676;DHT22;10999;51.332;9.458;2022-10-16T12:19:28;20.80;37.30
21676;DHT22;10999;51.332;9.458;2022-10-16T12:22:01;20.80;34.40
21676;DHT22;10999;51.332;9.458;2022-10-16T12:24:39;20.80;33.90
21676;DHT22;10999;51.332;9.458;2022-10-16T12:27:30;20.80;36.40
21676;DHT22;10999;51.332;9.458;2022-10-16T12:30:02;20.90;34.40
21676;DHT22;10999;51.332;9.458;2022-10-16T12:32:32;20.90;34.20
21676;DHT22;10999;51.332;9.458;2022-10-16T12:35:24;21.00;33.80
21676;DHT22;10999;51.332;9.458;2022-10-16T12:37:52;21.10;36.20
21676;DHT22;10999;51.332;9.458;2022-10-16T12:42:48;21.50;34.10
21676;DHT22;10999;51.332;9.458;2022-10-16T12:47:55;21.30;32.30
21676;DHT22;10999;51.332;9.458;2022-10-16T12:50:42;21.30;32.60
21676;DHT22;10999;51.332;9.458;2022-10-16T12:53:21;21.00;32.40
21676;DHT22;10999;51.332;9.458;2022-10-16T12:56:04;20.70;34.90
21676;DHT22;10999;51.332;9.458;2022-10-16T12:58:52;20.50;33.80
21676;DHT22;10999;51.332;9.458;2022-10-16T13:04:30;20.10;35.90
21676;DHT22;10999;51.332;9.458;2022-10-16T13:09:52;19.90;37.20
21676;DHT22;10999;51.332;9.458;2022-10-16T13:15:32;19.80;36.80
21676;DHT22;10999;51.332;9.458;2022-10-16T13:20:51;20.20;39.80
21676;DHT22;10999;51.332;9.458;2022-10-16T13:23:27;20.40;39.00
21676;DHT22;10999;51.332;9.458;2022-10-16T13:28:41;20.70;36.70
21676;DHT22;10999;51.332;9.458;2022-10-16T13:31:17;20.70;36.40
21676;DHT22;10999;51.332;9.458;2022-10-16T13:33:49;20.70;36.90
21676;DHT22;10999;51.332;9.458;2022-10-16T13:38:48;20.50;36.40
21676;DHT22;10999;51.332;9.458;2022-10-16T13:41:17;20.50;37.70
21676;DHT22;10999;51.332;9.458;2022-10-16T13:43:52;20.30;38.10
21676;DHT22;10999;51.332;9.458;2022-10-16T13:46:22;20.10;37.40
21676;DHT22;10999;51.332;9.458;2022-10-16T13:49:00;20.00;38.70
21676;DHT22;10999;51.332;9.458;2022-10-16T13:51:28;19.80;38.80
21676;DHT22;10999;51.332;9.458;2022-10-16T13:53:56;19.80;39.10
21676;DHT22;10999;51.332;9.458;2022-10-16T13:56:28;19.70;40.20
21676;DHT22;10999;51.332;9.458;2022-10-16T13:59:05;19.70;38.30
21676;DHT22;10999;51.332;9.458;2022-10-16T14:01:34;19.80;40.20
21676;DHT22;10999;51.332;9.458;2022-10-16T14:04:08;19.80;39.80
21676;DHT22;10999;51.332;9.458;2022-10-16T14:06:36;19.80;40.20
21676;DHT22;10999;51.332;9.458;2022-10-16T14:12:01;19.70;44.50
21676;DHT22;10999;51.332;9.458;2022-10-16T14:14:40;19.60;45.50
21676;DHT22;10999;51.332;9.458;2022-10-16T14:17:15;19.60;45.90
21676;DHT22;10999;51.332;9.458;2022-10-16T14:19:46;19.70;47.30
21676;DHT22;10999;51.332;9.458;2022-10-16T14:22:38;19.80;49.00
21676;DHT22;10999;51.332;9.458;2022-10-16T14:25:26;20.00;45.20
21676;DHT22;10999;51.332;9.458;2022-10-16T14:28:18;19.90;42.70
21676;DHT22;10999;51.332;9.458;2022-10-16T14:30:56;19.70;44.10
21676;DHT22;10999;51.332;9.458;2022-10-16T14:38:38;19.40;43.10
21676;DHT22;10999;51.332;9.458;2022-10-16T14:41:06;19.40;42.10
21676;DHT22;10999;51.332;9.458;2022-10-16T14:43:38;19.40;44.10
21676;DHT22;10999;51.332;9.458;2022-10-16T14:46:15;19.40;43.80
21676;DHT22;10999;51.332;9.458;2022-10-16T14:48:47;19.30;44.70
21676;DHT22;10999;51.332;9.458;2022-10-16T14:51:16;19.30;45.60
21676;DHT22;10999;51.332;9.458;2022-10-16T14:53:43;19.30;47.30
21676;DHT22;10999;51.332;9.458;2022-10-16T14:56:31;19.20;48.50
21676;DHT22;10999;51.332;9.458;2022-10-16T14:59:04;19.20;50.50
21676;DHT22;10999;51.332;9.458;2022-10-16T15:01:34;19.30;51.40
21676;DHT22;10999;51.332;9.458;2022-10-16T15:04:02;19.30;51.70
21676;DHT22;10999;51.332;9.458;2022-10-16T15:06:30;19.20;52.50
21676;DHT22;10999;51.332;9.458;2022-10-16T15:08:57;19.10;50.40
21676;DHT22;10999;51.332;9.458;2022-10-16T15:11:24;19.10;50.90
21676;DHT22;10999;51.332;9.458;2022-10-16T15:13:53;19.00;50.40
21676;DHT22;10999;51.332;9.458;2022-10-16T15:16:20;18.80;52.20
21676;DHT22;10999;51.332;9.458;2022-10-16T15:18:47;18.80;52.20
21676;DHT22;10999;51.332;9.458;2022-10-16T15:21:30;18.80;52.20
21676;DHT22;10999;51.332;9.458;2022-10-16T15:23:59;18.70;52.20
21676;DHT22;10999;51.332;9.458;2022-10-16T15:26:27;18.70;53.70
21676;DHT22;10999;51.332;9.458;2022-10-16T15:28:54;18.60;53.70
21676;DHT22;10999;51.332;9.458;2022-10-16T15:31:21;18.60;54.70
21676;DHT22;10999;51.332;9.458;2022-10-16T15:33:50;18.60;55.30
21676;DHT22;10999;51.332;9.458;2022-10-16T15:36:35;18.50;55.50
21676;DHT22;10999;51.332;9.458;2022-10-16T15:39:04;18.40;54.80
21676;DHT22;10999;51.332;9.458;2022-10-16T15:41:31;18.40;55.50
21676;DHT22;10999;51.332;9.458;2022-10-16T15:43:58;18.40;56.00
21676;DHT22;10999;51.332;9.458;2022-10-16T15:46:25;18.40;56.70
21676;DHT22;10999;51.332;9.458;2022-10-16T15:48:56;18.30;56.30
21676;DHT22;10999;51.332;9.458;2022-10-16T15:51:23;18.30;57.20
21676;DHT22;10999;51.332;9.458;2022-10-16T15:53:50;18.20;56.60
21676;DHT22;10999;51.332;9.458;2022-10-16T15:56:17;18.20;56.70
21676;DHT22;10999;51.332;9.458;2022-10-16T15:58:44;18.10;56.90
21676;DHT22;10999;51.332;9.458;2022-10-16T16:01:11;18.20;57.10
21676;DHT22;10999;51.332;9.458;2022-10-16T16:03:38;18.10;58.10
21676;DHT22;10999;51.332;9.458;2022-10-16T16:06:11;18.10;58.40
21676;DHT22;10999;51.332;9.458;2022-10-16T16:08:38;18.00;58.60
21676;DHT22;10999;51.332;9.458;2022-10-16T16:11:10;18.00;59.10
21676;DHT22;10999;51.332;9.458;2022-10-16T16:13:37;17.90;59.70
21676;DHT22;10999;51.332;9.458;2022-10-16T16:16:06;17.80;59.90
21676;DHT22;10999;51.332;9.458;2022-10-16T16:18:33;17.70;60.60
21676;DHT22;10999;51.332;9.458;2022-10-16T16:21:00;17.70;61.10
21676;DHT22;10999;51.332;9.458;2022-10-16T16:23:27;17.60;61.80
21676;DHT22;10999;51.332;9.458;2022-10-16T16:26:26;17.50;62.60
21676;DHT22;10999;51.332;9.458;2022-10-16T16:28:54;17.40;63.50
21676;DHT22;10999;51.332;9.458;2022-10-16T16:31:27;17.30;64.70
21676;DHT22;10999;51.332;9.458;2022-10-16T16:33:54;17.20;65.50
21676;DHT22;10999;51.332;9.458;2022-10-16T16:36:21;17.00;66.30
21676;DHT22;10999;51.332;9.458;2022-10-16T16:38:52;17.00;67.40
21676;DHT22;10999;51.332;9.458;2022-10-16T16:41:22;16.90;68.10
21676;DHT22;10999;51.332;9.458;2022-10-16T16:43:49;16.80;69.30
21676;DHT22;10999;51.332;9.458;2022-10-16T16:46:18;16.70;70.10
21676;DHT22;10999;51.332;9.458;2022-10-16T16:48:45;16.60;70.30
21676;DHT22;10999;51.332;9.458;2022-10-16T16:51:17;16.60;71.00
21676;DHT22;10999;51.332;9.458;2022-10-16T16:53:49;16.50;71.60
21676;DHT22;10999;51.332;9.458;2022-10-16T16:56:16;16.50;72.40
21676;DHT22;10999;51.332;9.458;2022-10-16T16:58:51;16.50;72.90
21676;DHT22;10999;51.332;9.458;2022-10-16T17:01:20;16.40;73.30
21676;DHT22;10999;51.332;9.458;2022-10-16T17:03:54;16.40;73.70
21676;DHT22;10999;51.332;9.458;2022-10-16T17:06:27;16.40;74.00
21676;DHT22;10999;51.332;9.458;2022-10-16T17:08:56;16.40;74.50
21676;DHT22;10999;51.332;9.458;2022-10-16T17:11:26;16.30;74.70
21676;DHT22;10999;51.332;9.458;2022-10-16T17:13:55;16.30;75.10
21676;DHT22;10999;51.332;9.458;2022-10-16T17:16:25;16.20;75.30
21676;DHT22;10999;51.332;9.458;2022-10-16T17:18:53;16.20;75.60
21676;DHT22;10999;51.332;9.458;2022-10-16T17:21:20;16.10;76.60
21676;DHT22;10999;51.332;9.458;2022-10-16T17:23:46;16.00;77.20
21676;DHT22;10999;51.332;9.458;2022-10-16T17:26:15;16.00;78.20
21676;DHT22;10999;51.332;9.458;2022-10-16T17:28:43;15.90;78.30
21676;DHT22;10999;51.332;9.458;2022-10-16T17:31:16;15.90;78.30
21676;DHT22;10999;51.332;9.458;2022-10-16T17:33:43;15.90;78.60
21676;DHT22;10999;51.332;9.458;2022-10-16T17:36:11;15.80;78.80
21676;DHT22;10999;51.332;9.458;2022-10-16T17:38:40;15.80;79.40
21676;DHT22;10999;51.332;9.458;2022-10-16T17:41:20;15.80;79.70
21676;DHT22;10999;51.332;9.458;2022-10-16T17:43:51;15.70;80.00